Time;durP1;ratioP1;P1;durP2;ratioP2;P2;SDS_P1;SDS_P2;PMS_P1;PMS_P2;Temp;Humidity;BMP_temperature;BMP_pressure;BME280_temperature;BME280_humidity;BME280_pressure;Samples;Min_cycle;Max_cycle;Signal;HPM_P1;HPM_P2
2022/06/03 00:02:01;;;;;;;;;;;;;;;;;;5069294;28;19915;-62
2022/06/03 00:04:27;;;;;;;;;;;;;;;;;;5087575;28;20374;-62
2022/06/03 00:06:53;;;;;;;;;;;;;;;;;;5087786;28;19911;-62
2022/06/03 00:09:19;;;;;;;;;;;;;;;;;;5069751;28;19913;-61
2022/06/03 00:11:46;;;;;;;;;;;;;;;;;;5057061;28;19916;-61
2022/06/03 00:14:12;;;;;;;;;;;;;;;;;;5048147;28;19905;-61
2022/06/03 00:16:38;;;;;;;;;;;;;;;;;;5062798;28;19912;-61
2022/06/03 00:19:04;;;;;;;;;;;;;;;;;;5066899;28;19918;-62
2022/06/03 00:21:30;;;;;;;;;;;;;;;;;;5067192;28;19908;-62
2022/06/03 00:23:57;;;;;;;;;;;;;;;;;;5067118;28;19915;-61
2022/06/03 00:26:23;;;;;;;;;;;;;;;;;;5065595;28;19908;-61
2022/06/03 00:28:49;;;;;;;;;;;;;;;;;;5066923;28;20077;-62
2022/06/03 00:31:15;;;;;;;;;;;;;;;;;;5067169;28;19961;-62
2022/06/03 00:33:41;;;;;;;;;;;;;;;;;;5067344;28;19934;-61
2022/06/03 00:36:09;;;;;;;;;;;;;;;;;;5064794;28;19966;-62
2022/06/03 00:38:36;;;;;;;;;;;;;;;;;;5046833;28;19916;-62
2022/06/03 00:41:02;;;;;;;;;;;;;;;;;;5047055;28;20114;-61
2022/06/03 00:43:28;;;;;;;;;;;;;;;;;;5046884;28;20379;-62
2022/06/03 00:45:55;;;;;;;;;;;;;;;;;;5050796;28;20461;-62
2022/06/03 00:48:21;;;;;;;;;;;;;;;;;;5066818;28;19947;-62
2022/06/03 00:50:47;;;;;;;;;;;;;;;;;;5048443;28;19956;-62
2022/06/03 00:53:14;;;;;;;;;;;;;;;;;;5047594;28;19927;-62
2022/06/03 00:55:40;;;;;;;;;;;;;;;;;;5048414;28;19916;-62
2022/06/03 00:58:05;;;;;;;;;;;;;;;;;;5066375;28;20346;-62
2022/06/03 01:00:31;;;;;;;;;;;;;;;;;;5066669;28;19912;-61
2022/06/03 01:02:57;;;;;;;;;;;;;;;;;;5066321;28;20178;-62
2022/06/03 01:05:23;;;;;;;;;;;;;;;;;;5066005;28;19904;-62
2022/06/03 01:07:49;;;;;;;;;;;;;;;;;;5065208;28;19919;-61
2022/06/03 01:10:16;;;;;;;;;;;;;;;;;;5066553;28;19912;-62
2022/06/03 01:12:43;;;;;;;;;;;;;;;;;;5059874;28;19904;-61
2022/06/03 01:15:09;;;;;;;;;;;;;;;;;;5053218;28;19931;-62
2022/06/03 01:17:35;;;;;;;;;;;;;;;;;;5064636;28;19981;-62
2022/06/03 01:20:01;;;;;;;;;;;;;;;;;;5066210;28;19966;-62
2022/06/03 01:22:27;;;;;;;;;;;;;;;;;;5066184;28;19953;-62
2022/06/03 01:24:53;;;;;;;;;;;;;;;;;;5065654;28;19904;-62
2022/06/03 01:27:20;;;;;;;;;;;;;;;;;;5065096;28;19912;-62
2022/06/03 01:29:46;;;;;;;;;;;;;;;;;;5065821;28;20028;-62
2022/06/03 01:32:11;;;;;;;;;;;;;;;;;;5066496;28;20385;-62
2022/06/03 01:34:38;;;;;;;;;;;;;;;;;;5064738;28;19957;-61
2022/06/03 01:37:05;;;;;;;;;;;;;;;;;;5064717;28;19916;-61
2022/06/03 01:39:31;;;;;;;;;;;;;;;;;;5065791;28;19923;-61
2022/06/03 01:41:58;;;;;;;;;;;;;;;;;;5065433;28;19904;-61
2022/06/03 01:44:25;;;;;;;;;;;;;;;;;;5064709;28;19911;-62
2022/06/03 01:46:51;;;;;;;;;;;;;;;;;;5062773;28;19908;-62
2022/06/03 01:49:17;;;;;;;;;;;;;;;;;;5065842;28;19962;-62
2022/06/03 01:51:44;;;;;;;;;;;;;;;;;;5066062;28;19943;-62
2022/06/03 01:54:09;;;;;;;;;;;;;;;;;;5066229;28;19947;-61
2022/06/03 01:56:35;;;;;;;;;;;;;;;;;;5063633;28;19951;-61
2022/06/03 01:59:02;;;;;;;;;;;;;;;;;;5065435;28;19909;-61
2022/06/03 02:01:28;;;;;;;;;;;;;;;;;;5065361;28;20357;-62
2022/06/03 02:03:54;;;;;;;;;;;;;;;;;;5065281;28;19911;-62
2022/06/03 02:06:20;;;;;;;;;;;;;;;;;;5066142;28;19912;-62
2022/06/03 02:08:47;;;;;;;;;;;;;;;;;;5065203;28;20501;-61
2022/06/03 02:11:13;;;;;;;;;;;;;;;;;;5066225;28;20316;-61
2022/06/03 02:13:39;;;;;;;;;;;;;;;;;;5063209;28;19995;-61
2022/06/03 02:16:06;;;;;;;;;;;;;;;;;;5065106;28;19913;-62
2022/06/03 02:18:32;;;;;;;;;;;;;;;;;;5065125;28;19954;-62
2022/06/03 02:20:59;;;;;;;;;;;;;;;;;;5064870;28;19912;-62
2022/06/03 02:23:25;;;;;;;;;;;;;;;;;;5065104;28;19951;-61
2022/06/03 02:25:51;;;;;;;;;;;;;;;;;;5063134;28;19908;-62
2022/06/03 02:28:19;;;;;;;;;;;;;;;;;;5065438;28;19912;-62
2022/06/03 02:30:45;;;;;;;;;;;;;;;;;;5065087;28;19908;-61
2022/06/03 02:33:11;;;;;;;;;;;;;;;;;;5065443;28;19953;-61
2022/06/03 02:35:37;;;;;;;;;;;;;;;;;;5063439;28;19913;-61
2022/06/03 02:38:04;;;;;;;;;;;;;;;;;;5066498;28;19911;-61
2022/06/03 02:40:31;;;;;;;;;;;;;;;;;;5069263;28;19995;-61
2022/06/03 02:42:57;;;;;;;;;;;;;;;;;;5068998;28;19910;-61
2022/06/03 02:45:24;;;;;;;;;;;;;;;;;;5067809;28;20383;-61
2022/06/03 02:47:50;;;;;;;;;;;;;;;;;;5068667;28;20689;-61
2022/06/03 02:50:16;;;;;;;;;;;;;;;;;;5062228;28;19916;-62
2022/06/03 02:52:42;;;;;;;;;;;;;;;;;;5049325;28;19995;-62
2022/06/03 02:55:09;;;;;;;;;;;;;;;;;;5048721;28;20378;-61
2022/06/03 02:57:36;;;;;;;;;;;;;;;;;;5066898;28;19916;-61
2022/06/03 03:00:02;;;;;;;;;;;;;;;;;;5068886;28;20003;-62
2022/06/03 03:02:27;;;;;;;;;;;;;;;;;;5068614;28;19911;-61
2022/06/03 03:04:53;;;;;;;;;;;;;;;;;;5068620;28;19904;-61
2022/06/03 03:07:19;;;;;;;;;;;;;;;;;;5069052;28;19983;-61
2022/06/03 03:09:45;;;;;;;;;;;;;;;;;;5067659;28;20384;-61
2022/06/03 03:12:11;;;;;;;;;;;;;;;;;;5069225;28;19917;-61
2022/06/03 03:14:37;;;;;;;;;;;;;;;;;;5068218;28;20444;-61
2022/06/03 03:17:03;;;;;;;;;;;;;;;;;;5068392;28;19943;-62
2022/06/03 03:19:30;;;;;;;;;;;;;;;;;;5068196;28;20290;-61
2022/06/03 03:21:56;;;;;;;;;;;;;;;;;;5067994;28;20425;-61
2022/06/03 03:24:22;;;;;;;;;;;;;;;;;;5068627;28;19905;-61
2022/06/03 03:26:48;;;;;;;;;;;;;;;;;;5059566;28;19912;-61
2022/06/03 03:29:14;;;;;;;;;;;;;;;;;;5059092;28;20357;-61
2022/06/03 03:31:40;;;;;;;;;;;;;;;;;;5068527;28;19948;-61
2022/06/03 03:34:07;;;;;;;;;;;;;;;;;;5068268;28;20299;-61
2022/06/03 03:36:34;;;;;;;;;;;;;;;;;;5067874;28;20208;-61
2022/06/03 03:39:01;;;;;;;;;;;;;;;;;;5066999;28;19920;-61
2022/06/03 03:41:27;;;;;;;;;;;;;;;;;;5068122;28;19908;-61
2022/06/03 03:43:52;;;;;;;;;;;;;;;;;;5067777;28;20427;-61
2022/06/03 03:46:19;;;;;;;;;;;;;;;;;;5067908;28;19909;-61
2022/06/03 03:48:45;;;;;;;;;;;;;;;;;;5066442;28;20379;-61
2022/06/03 03:51:11;;;;;;;;;;;;;;;;;;5068117;28;20380;-61
2022/06/03 03:53:37;;;;;;;;;;;;;;;;;;5067335;28;19916;-61
2022/06/03 03:56:04;;;;;;;;;;;;;;;;;;5067874;28;19912;-61
2022/06/03 03:58:30;;;;;;;;;;;;;;;;;;5061373;28;20387;-61
2022/06/03 04:00:57;;;;;;;;;;;;;;;;;;5047492;28;19909;-61
2022/06/03 04:03:24;;;;;;;;;;;;;;;;;;5056876;28;20299;-61
2022/06/03 04:05:49;;;;;;;;;;;;;;;;;;5067582;28;20016;-61
2022/06/03 04:08:15;;;;;;;;;;;;;;;;;;5066146;28;19955;-62
2022/06/03 04:10:41;;;;;;;;;;;;;;;;;;5048103;28;19909;-61
2022/06/03 04:13:07;;;;;;;;;;;;;;;;;;5047653;28;19905;-61
2022/06/03 04:15:33;;;;;;;;;;;;;;;;;;5047050;28;20352;-61
2022/06/03 04:18:00;;;;;;;;;;;;;;;;;;5067584;28;19949;-61
2022/06/03 04:20:26;;;;;;;;;;;;;;;;;;5065761;28;19912;-61
2022/06/03 04:22:52;;;;;;;;;;;;;;;;;;5065965;28;19919;-61
2022/06/03 04:25:18;;;;;;;;;;;;;;;;;;5067200;28;20284;-61
2022/06/03 04:27:43;;;;;;;;;;;;;;;;;;5067479;28;19954;-61
2022/06/03 04:30:09;;;;;;;;;;;;;;;;;;5062027;28;19917;-61
2022/06/03 04:32:35;;;;;;;;;;;;;;;;;;5046935;28;20451;-62
2022/06/03 04:35:01;;;;;;;;;;;;;;;;;;5047023;28;19908;-61
2022/06/03 04:37:27;;;;;;;;;;;;;;;;;;5047310;28;20303;-61
2022/06/03 04:39:54;;;;;;;;;;;;;;;;;;5047685;28;19920;-61
2022/06/03 04:42:21;;;;;;;;;;;;;;;;;;5046939;28;19987;-61
2022/06/03 04:44:47;;;;;;;;;;;;;;;;;;5046309;28;20298;-61
2022/06/03 04:47:13;;;;;;;;;;;;;;;;;;5047398;28;19905;-61
2022/06/03 04:49:38;;;;;;;;;;;;;;;;;;5047451;28;19912;-61
2022/06/03 04:52:04;;;;;;;;;;;;;;;;;;5051097;28;19916;-61
2022/06/03 04:54:30;;;;;;;;;;;;;;;;;;5066803;28;19904;-61
2022/06/03 04:56:56;;;;;;;;;;;;;;;;;;5066229;28;20315;-61
2022/06/03 04:59:22;;;;;;;;;;;;;;;;;;5066347;28;19958;-61
2022/06/03 05:01:48;;;;;;;;;;;;;;;;;;5064979;28;20126;-61
2022/06/03 05:04:15;;;;;;;;;;;;;;;;;;5065878;28;19912;-61
2022/06/03 05:06:41;;;;;;;;;;;;;;;;;;5066896;28;19905;-61
2022/06/03 05:09:08;;;;;;;;;;;;;;;;;;5066469;28;19904;-61
2022/06/03 05:11:33;;;;;;;;;;;;;;;;;;5066431;28;20359;-61
2022/06/03 05:13:59;;;;;;;;;;;;;;;;;;5064766;28;19908;-61
2022/06/03 05:16:26;;;;;;;;;;;;;;;;;;5065025;28;20600;-61
2022/06/03 05:18:52;;;;;;;;;;;;;;;;;;5065701;28;19912;-61
2022/06/03 05:21:18;;;;;;;;;;;;;;;;;;5065975;28;20678;-61
2022/06/03 05:23:45;;;;;;;;;;;;;;;;;;5064467;28;19908;-61
2022/06/03 05:26:11;;;;;;;;;;;;;;;;;;5066609;28;19904;-61
2022/06/03 05:28:39;;;;;;;;;;;;;;;;;;5065668;28;20042;-61
2022/06/03 05:31:05;;;;;;;;;;;;;;;;;;5066196;28;19995;-61
2022/06/03 05:33:32;;;;;;;;;;;;;;;;;;5065791;28;20290;-61
2022/06/03 05:35:59;;;;;;;;;;;;;;;;;;5065642;28;19912;-61
2022/06/03 05:38:24;;;;;;;;;;;;;;;;;;5063288;28;20209;-61
2022/06/03 05:40:50;;;;;;;;;;;;;;;;;;5064216;28;19915;-61
2022/06/03 05:43:19;;;;;;;;;;;;;;;;;;5065782;28;19909;-61
2022/06/03 05:45:45;;;;;;;;;;;;;;;;;;5065005;28;20007;-61
2022/06/03 05:48:12;;;;;;;;;;;;;;;;;;5066316;28;19987;-61
2022/06/03 05:50:38;;;;;;;;;;;;;;;;;;5064749;28;19904;-61
2022/06/03 05:53:04;;;;;;;;;;;;;;;;;;5045964;28;19915;-61
2022/06/03 05:55:30;;;;;;;;;;;;;;;;;;5045295;28;20338;-61
2022/06/03 05:57:56;;;;;;;;;;;;;;;;;;5045311;28;19966;-61
2022/06/03 06:00:22;;;;;;;;;;;;;;;;;;5046303;28;19912;-61
2022/06/03 06:02:48;;;;;;;;;;;;;;;;;;5065655;28;19978;-61
2022/06/03 06:05:14;;;;;;;;;;;;;;;;;;5067904;28;20368;-61
2022/06/03 06:07:40;;;;;;;;;;;;;;;;;;5067326;28;19947;-61
2022/06/03 06:10:06;;;;;;;;;;;;;;;;;;5067021;28;20368;-61
2022/06/03 06:12:32;;;;;;;;;;;;;;;;;;5066035;28;19908;-61
2022/06/03 06:14:58;;;;;;;;;;;;;;;;;;5064414;28;19915;-61
2022/06/03 06:17:23;;;;;;;;;;;;;;;;;;5050424;28;19916;-61
2022/06/03 06:19:49;;;;;;;;;;;;;;;;;;5066311;28;19916;-61
2022/06/03 06:22:16;;;;;;;;;;;;;;;;;;5066804;28;19964;-61
2022/06/03 06:24:42;;;;;;;;;;;;;;;;;;5067116;28;19908;-61
2022/06/03 06:27:08;;;;;;;;;;;;;;;;;;5067536;28;19912;-61
2022/06/03 06:29:35;;;;;;;;;;;;;;;;;;5064145;28;19963;-61
2022/06/03 06:32:00;;;;;;;;;;;;;;;;;;5066448;28;19907;-61
2022/06/03 06:34:26;;;;;;;;;;;;;;;;;;5066404;28;20287;-61
2022/06/03 06:36:52;;;;;;;;;;;;;;;;;;5066356;28;19909;-61
2022/06/03 06:39:18;;;;;;;;;;;;;;;;;;5062751;28;19955;-61
2022/06/03 06:41:45;;;;;;;;;;;;;;;;;;5066344;28;19934;-61
2022/06/03 06:44:11;;;;;;;;;;;;;;;;;;5066176;28;20389;-61
2022/06/03 06:46:37;;;;;;;;;;;;;;;;;;5066045;28;19916;-61
2022/06/03 06:49:03;;;;;;;;;;;;;;;;;;5064219;28;20030;-61
2022/06/03 06:51:29;;;;;;;;;;;;;;;;;;5065341;28;19912;-61
2022/06/03 06:53:55;;;;;;;;;;;;;;;;;;5066156;28;20008;-61
2022/06/03 06:56:21;;;;;;;;;;;;;;;;;;5066343;28;19912;-61
2022/06/03 06:58:50;;;;;;;;;;;;;;;;;;5064750;28;19912;-61
2022/06/03 07:01:16;;;;;;;;;;;;;;;;;;5065653;28;19936;-61
2022/06/03 07:03:42;;;;;;;;;;;;;;;;;;5066802;28;20287;-61
2022/06/03 07:06:08;;;;;;;;;;;;;;;;;;5066368;28;19991;-61
2022/06/03 07:08:33;;;;;;;;;;;;;;;;;;5067558;28;20522;-61
2022/06/03 07:11:00;;;;;;;;;;;;;;;;;;5075547;28;19912;-61
2022/06/03 07:13:26;;;;;;;;;;;;;;;;;;5065720;28;20252;-61
2022/06/03 07:15:52;;;;;;;;;;;;;;;;;;5064680;28;19908;-61
2022/06/03 07:21:02;;;;;;;;;;;;;;;;;;5085967;28;19926;-61
2022/06/03 07:23:28;;;;;;;;;;;;;;;;;;5065865;28;20566;-61
2022/06/03 07:25:56;;;;;;;;;;;;;;;;;;5067818;28;19920;-61
2022/06/03 07:28:22;;;;;;;;;;;;;;;;;;5069909;28;19958;-61
2022/06/03 07:30:48;;;;;;;;;;;;;;;;;;5064828;28;19911;-61
2022/06/03 07:33:14;;;;;;;;;;;;;;;;;;5070706;28;19912;-62
2022/06/03 07:35:40;;;;;;;;;;;;;;;;;;5064664;28;19916;-61
2022/06/03 07:38:06;;;;;;;;;;;;;;;;;;5049625;28;19908;-61
2022/06/03 07:40:32;;;;;;;;;;;;;;;;;;5065843;28;19924;-61
2022/06/03 07:42:58;;;;;;;;;;;;;;;;;;5066861;28;19919;-61
2022/06/03 07:45:26;;;;;;;;;;;;;;;;;;5071107;28;19995;-61
2022/06/03 07:47:52;;;;;;;;;;;;;;;;;;5069911;28;19958;-61
2022/06/03 07:50:19;;;;;;;;;;;;;;;;;;5067932;28;19916;-61
2022/06/03 07:52:46;;;;;;;;;;;;;;;;;;5073995;28;19965;-61
2022/06/03 07:55:12;;;;;;;;;;;;;;;;;;5075518;28;19947;-61
2022/06/03 07:57:38;;;;;;;;;;;;;;;;;;5069234;28;20676;-61
2022/06/03 08:00:04;;;;;;;;;;;;;;;;;;5075032;28;19959;-61
2022/06/03 08:02:30;;;;;;;;;;;;;;;;;;5067710;28;20002;-61
2022/06/03 08:04:56;;;;;;;;;;;;;;;;;;5069119;28;19905;-61
2022/06/03 08:12:51;;;;;;;;;;;;;;;;;;5077910;28;19918;-61
2022/06/03 08:15:17;;;;;;;;;;;;;;;;;;5082524;28;19908;-60
2022/06/03 08:17:43;;;;;;;;;;;;;;;;;;5084007;28;20030;-60
2022/06/03 08:20:09;;;;;;;;;;;;;;;;;;5080057;28;19923;-60
2022/06/03 08:22:35;;;;;;;;;;;;;;;;;;5064891;28;20003;-60
2022/06/03 08:25:01;;;;;;;;;;;;;;;;;;5069171;28;19904;-60
2022/06/03 08:27:27;;;;;;;;;;;;;;;;;;5068909;28;19908;-61
2022/06/03 08:29:53;;;;;;;;;;;;;;;;;;5065610;28;19912;-61
2022/06/03 08:32:19;;;;;;;;;;;;;;;;;;5062911;28;19917;-60
2022/06/03 08:34:45;;;;;;;;;;;;;;;;;;5068367;28;19934;-60
2022/06/03 08:37:11;;;;;;;;;;;;;;;;;;5080954;28;19908;-60
2022/06/03 08:39:37;;;;;;;;;;;;;;;;;;5067558;28;19912;-60
2022/06/03 08:42:03;;;;;;;;;;;;;;;;;;5063411;28;20333;-61
2022/06/03 08:44:29;;;;;;;;;;;;;;;;;;5048145;28;19909;-61
2022/06/03 08:46:56;;;;;;;;;;;;;;;;;;5047586;28;19919;-61
2022/06/03 08:49:23;;;;;;;;;;;;;;;;;;5065088;28;19908;-61
2022/06/03 08:51:49;;;;;;;;;;;;;;;;;;5057928;28;19948;-60
2022/06/03 08:54:16;;;;;;;;;;;;;;;;;;5067955;28;19947;-60
2022/06/03 08:56:41;;;;;;;;;;;;;;;;;;5066853;28;19946;-60
2022/06/03 08:59:08;;;;;;;;;;;;;;;;;;5074675;28;20378;-60
2022/06/03 09:01:34;;;;;;;;;;;;;;;;;;5086794;28;19973;-60
2022/06/03 09:04:00;;;;;;;;;;;;;;;;;;5053807;28;20379;-60
2022/06/03 09:06:27;;;;;;;;;;;;;;;;;;5050255;28;19912;-60
2022/06/03 09:08:54;;;;;;;;;;;;;;;;;;5047471;28;20032;-60
2022/06/03 09:11:20;;;;;;;;;;;;;;;;;;5086540;28;20374;-60
2022/06/03 09:13:47;;;;;;;;;;;;;;;;;;5066905;28;19954;-60
2022/06/03 09:16:13;;;;;;;;;;;;;;;;;;5059105;28;20318;-60
2022/06/03 09:18:39;;;;;;;;;;;;;;;;;;5067416;28;20034;-60
2022/06/03 09:21:05;;;;;;;;;;;;;;;;;;5067221;28;19908;-60
2022/06/03 09:23:32;;;;;;;;;;;;;;;;;;5067368;28;19912;-60
2022/06/03 09:25:58;;;;;;;;;;;;;;;;;;5066832;28;19905;-60
2022/06/03 09:28:24;;;;;;;;;;;;;;;;;;5072945;28;19952;-60
2022/06/03 09:30:50;;;;;;;;;;;;;;;;;;5076960;28;19981;-60
2022/06/03 09:33:16;;;;;;;;;;;;;;;;;;5067593;28;19908;-60
2022/06/03 09:35:42;;;;;;;;;;;;;;;;;;5068865;28;20257;-60
2022/06/03 09:38:08;;;;;;;;;;;;;;;;;;5070885;28;19995;-60
2022/06/03 09:40:35;;;;;;;;;;;;;;;;;;5071190;28;19920;-60
2022/06/03 09:43:01;;;;;;;;;;;;;;;;;;5075521;28;20428;-60
2022/06/03 09:45:27;;;;;;;;;;;;;;;;;;5069894;28;19904;-60
2022/06/03 09:47:53;;;;;;;;;;;;;;;;;;5074826;28;19908;-60
2022/06/03 09:50:19;;;;;;;;;;;;;;;;;;5071582;28;20456;-60
2022/06/03 09:52:48;;;;;;;;;;;;;;;;;;5067327;28;19912;-61
2022/06/03 09:55:15;;;;;;;;;;;;;;;;;;5087782;28;19946;-60
2022/06/03 09:57:41;;;;;;;;;;;;;;;;;;5087297;28;19904;-60
2022/06/03 10:00:10;;;;;;;;;;;;;;;;;;5085739;28;19931;-61
2022/06/03 10:02:36;;;;;;;;;;;;;;;;;;5085536;28;19929;-61
2022/06/03 10:05:02;;;;;;;;;;;;;;;;;;5085500;28;19900;-61
2022/06/03 10:07:29;;;;;;;;;;;;;;;;;;5086021;28;19904;-61
2022/06/03 10:12:49;;;;;;;;;;;;;;;;;;5065544;28;19962;-61
2022/06/03 10:18:01;;;;;;;;;;;;;;;;;;5065481;28;19915;-61
2022/06/03 10:20:26;;;;;;;;;;;;;;;;;;5065030;28;20299;-61
2022/06/03 10:22:53;;;;;;;;;;;;;;;;;;5064892;28;19905;-61
2022/06/03 10:25:19;;;;;;;;;;;;;;;;;;5065547;28;19971;-61
2022/06/03 10:27:46;;;;;;;;;;;;;;;;;;5064989;28;19995;-61
2022/06/03 10:30:12;;;;;;;;;;;;;;;;;;5065957;28;19912;-61
2022/06/03 10:32:38;;;;;;;;;;;;;;;;;;5065003;28;19904;-61
2022/06/03 10:35:04;;;;;;;;;;;;;;;;;;5065320;28;20405;-61
2022/06/03 10:37:34;;;;;;;;;;;;;;;;;;5064869;28;19915;-61
2022/06/03 10:40:00;;;;;;;;;;;;;;;;;;5064972;28;20039;-61
2022/06/03 10:42:25;;;;;;;;;;;;;;;;;;5064957;28;20438;-61
2022/06/03 10:44:51;;;;;;;;;;;;;;;;;;5064839;28;19911;-61
2022/06/03 10:47:17;;;;;;;;;;;;;;;;;;5065400;28;19983;-61
2022/06/03 10:49:43;;;;;;;;;;;;;;;;;;5065203;28;19950;-61
2022/06/03 11:03:07;;;;;;;;;;;;;;;;;;5069059;28;19995;-60
2022/06/03 11:05:33;;;;;;;;;;;;;;;;;;5068816;28;20549;-60
2022/06/03 11:08:02;;;;;;;;;;;;;;;;;;5068536;28;19958;-60
2022/06/03 11:10:29;;;;;;;;;;;;;;;;;;5068554;28;19912;-60
2022/06/03 11:12:55;;;;;;;;;;;;;;;;;;5068440;28;20417;-60
2022/06/03 11:15:21;;;;;;;;;;;;;;;;;;5068413;28;19909;-60
2022/06/03 11:17:47;;;;;;;;;;;;;;;;;;5068370;28;19912;-60
2022/06/03 11:20:13;;;;;;;;;;;;;;;;;;5068934;28;19908;-60
2022/06/03 11:22:43;;;;;;;;;;;;;;;;;;5068906;28;19908;-59
2022/06/03 11:25:09;;;;;;;;;;;;;;;;;;5068873;28;19971;-59
2022/06/03 11:27:36;;;;;;;;;;;;;;;;;;5067720;28;20280;-60
2022/06/03 11:30:02;;;;;;;;;;;;;;;;;;5068404;28;20325;-60
2022/06/03 11:32:28;;;;;;;;;;;;;;;;;;5067215;28;19995;-60
2022/06/03 11:34:54;;;;;;;;;;;;;;;;;;5084724;28;20150;-60
2022/06/03 11:37:20;;;;;;;;;;;;;;;;;;5066444;28;19912;-60
2022/06/03 11:39:46;;;;;;;;;;;;;;;;;;5080389;28;19909;-59
2022/06/03 11:42:12;;;;;;;;;;;;;;;;;;5080754;28;20001;-60
2022/06/03 11:44:38;;;;;;;;;;;;;;;;;;5064774;28;19916;-60
2022/06/03 11:47:04;;;;;;;;;;;;;;;;;;5076841;28;20299;-60
2022/06/03 11:49:30;;;;;;;;;;;;;;;;;;5080118;28;20034;-60
2022/06/03 11:51:56;;;;;;;;;;;;;;;;;;5068160;28;19930;-60
2022/06/03 11:54:23;;;;;;;;;;;;;;;;;;5049657;28;20271;-59
2022/06/03 11:56:49;;;;;;;;;;;;;;;;;;5074564;28;20385;-60
2022/06/03 11:59:15;;;;;;;;;;;;;;;;;;5066704;28;19973;-57
2022/06/03 12:01:41;;;;;;;;;;;;;;;;;;5069293;28;19908;-58
2022/06/03 12:04:07;;;;;;;;;;;;;;;;;;5063690;28;19907;-58
2022/06/03 12:06:33;;;;;;;;;;;;;;;;;;5077534;28;20000;-58
2022/06/03 12:08:59;;;;;;;;;;;;;;;;;;5066232;28;19995;-58
2022/06/03 12:14:10;;;;;;;;;;;;;;;;;;5080806;28;19938;-59
2022/06/03 12:16:35;;;;;;;;;;;;;;;;;;5048317;28;20368;-60
2022/06/03 12:19:03;;;;;;;;;;;;;;;;;;5066776;28;20272;-58
2022/06/03 12:21:32;;;;;;;;;;;;;;;;;;5068977;28;20272;-58
2022/06/03 12:23:58;;;;;;;;;;;;;;;;;;5057757;28;19909;-59
2022/06/03 12:26:24;;;;;;;;;;;;;;;;;;5050524;28;19919;-58
2022/06/03 12:28:50;;;;;;;;;;;;;;;;;;5068300;28;19912;-58
2022/06/03 12:31:16;;;;;;;;;;;;;;;;;;5076514;28;19998;-59
2022/06/03 12:33:42;;;;;;;;;;;;;;;;;;5089886;28;19995;-59
2022/06/03 12:36:08;;;;;;;;;;;;;;;;;;5077639;28;19950;-59
2022/06/03 12:38:34;;;;;;;;;;;;;;;;;;5070642;28;19973;-59
2022/06/03 12:41:00;;;;;;;;;;;;;;;;;;5069429;28;19908;-59
2022/06/03 12:43:26;;;;;;;;;;;;;;;;;;5068704;28;19904;-61
2022/06/03 12:45:52;;;;;;;;;;;;;;;;;;5069595;28;19908;-60
2022/06/03 12:48:18;;;;;;;;;;;;;;;;;;5069594;28;19904;-61
2022/06/03 12:50:44;;;;;;;;;;;;;;;;;;5083803;28;19965;-60
2022/06/03 12:53:10;;;;;;;;;;;;;;;;;;5076957;28;19912;-61
2022/06/03 12:55:36;;;;;;;;;;;;;;;;;;5083579;28;20002;-61
2022/06/03 12:58:03;;;;;;;;;;;;;;;;;;5077189;28;19969;-61
2022/06/03 13:00:32;;;;;;;;;;;;;;;;;;5071221;28;20003;-61
2022/06/03 13:02:58;;;;;;;;;;;;;;;;;;5073797;28;20386;-62
2022/06/03 13:05:24;;;;;;;;;;;;;;;;;;5080659;28;20029;-62
2022/06/03 13:07:50;;;;;;;;;;;;;;;;;;5066932;28;19912;-61
2022/06/03 13:10:17;;;;;;;;;;;;;;;;;;5065742;28;19920;-62
2022/06/03 13:12:43;;;;;;;;;;;;;;;;;;5066761;28;20003;-61
2022/06/03 13:15:09;;;;;;;;;;;;;;;;;;5061792;28;20383;-62
2022/06/03 13:17:35;;;;;;;;;;;;;;;;;;5076526;28;19912;-61
2022/06/03 13:20:01;;;;;;;;;;;;;;;;;;5049469;28;19962;-62
2022/06/03 13:22:28;;;;;;;;;;;;;;;;;;5046447;28;19905;-62
2022/06/03 13:24:56;;;;;;;;;;;;;;;;;;5064219;28;20471;-62
2022/06/03 13:27:24;;;;;;;;;;;;;;;;;;5069582;28;19912;-62
2022/06/03 13:29:52;;;;;;;;;;;;;;;;;;5079122;28;19973;-61
2022/06/03 13:32:19;;;;;;;;;;;;;;;;;;5078267;28;19915;-62
2022/06/03 13:34:45;;;;;;;;;;;;;;;;;;5085087;28;20427;-63
2022/06/03 13:37:11;;;;;;;;;;;;;;;;;;5066125;28;19908;-62
2022/06/03 13:39:38;;;;;;;;;;;;;;;;;;5065070;28;19920;-63
2022/06/03 13:44:50;;;;;;;;;;;;;;;;;;5066642;28;19916;-64
2022/06/03 13:47:16;;;;;;;;;;;;;;;;;;5070030;28;19920;-63
2022/06/03 13:49:42;;;;;;;;;;;;;;;;;;5057691;28;19908;-64
2022/06/03 13:52:09;;;;;;;;;;;;;;;;;;5082931;28;19915;-63
2022/06/03 13:54:35;;;;;;;;;;;;;;;;;;5079126;28;19912;-62
2022/06/03 13:57:01;;;;;;;;;;;;;;;;;;5079105;28;19927;-62
2022/06/03 13:59:28;;;;;;;;;;;;;;;;;;5058225;28;20379;-63
2022/06/03 14:01:55;;;;;;;;;;;;;;;;;;5049589;28;19924;-66
2022/06/03 14:04:21;;;;;;;;;;;;;;;;;;5047882;28;19909;-64
2022/06/03 14:06:47;;;;;;;;;;;;;;;;;;5063297;28;19908;-63
2022/06/03 14:09:13;;;;;;;;;;;;;;;;;;5075941;28;19952;-62
2022/06/03 14:11:39;;;;;;;;;;;;;;;;;;5062143;28;20364;-64
2022/06/03 14:14:05;;;;;;;;;;;;;;;;;;5072322;28;19908;-63
2022/06/03 14:16:31;;;;;;;;;;;;;;;;;;5076365;28;19958;-63
2022/06/03 14:18:57;;;;;;;;;;;;;;;;;;5069302;28;19912;-63
2022/06/03 14:21:23;;;;;;;;;;;;;;;;;;5075407;28;19920;-64
2022/06/03 14:23:49;;;;;;;;;;;;;;;;;;5074342;28;20287;-63
2022/06/03 14:26:15;;;;;;;;;;;;;;;;;;5071523;28;20214;-63
2022/06/03 14:28:41;;;;;;;;;;;;;;;;;;5065725;28;19908;-51
2022/06/03 14:31:07;;;;;;;;;;;;;;;;;;5061851;28;19913;-50
2022/06/03 14:33:33;;;;;;;;;;;;;;;;;;5068580;28;19995;-51
2022/06/03 14:36:00;;;;;;;;;;;;;;;;;;5076380;28;19907;-48
2022/06/03 14:38:26;;;;;;;;;;;;;;;;;;5068165;28;19919;-52
2022/06/03 14:40:52;;;;;;;;;;;;;;;;;;5082955;28;19907;-49
2022/06/03 14:43:19;;;;;;;;;;;;;;;;;;5076619;28;19909;-49
2022/06/03 14:45:45;;;;;;;;;;;;;;;;;;5084921;28;20613;-49
2022/06/03 14:48:14;;;;;;;;;;;;;;;;;;5077853;28;19965;-51
2022/06/03 14:50:40;;;;;;;;;;;;;;;;;;5067621;28;20490;-48
2022/06/03 14:53:07;;;;;;;;;;;;;;;;;;5066452;28;19908;-51
2022/06/03 14:55:33;;;;;;;;;;;;;;;;;;5052378;28;19954;-51
2022/06/03 14:58:18;;;;;;;1.30;0.95;;;;;;;;;;5067593;28;20472;-47
2022/06/03 15:00:56;;;;;;;4.97;1.45;;;;;;;;;;5053299;28;20060;-46
2022/06/03 15:03:22;;;;;;;2.25;1.30;;;;;;;;;;5067962;28;20028;-47
2022/06/03 15:05:48;;;;;;;;;;;;;;;;;;5074899;28;20027;-51
2022/06/03 15:08:14;;;;;;;;;;;;;;;;;;5051290;28;20355;-49
2022/06/03 15:10:40;;;;;;;;;;;;;;;;;;5063019;28;19955;-50
2022/06/03 15:13:06;;;;;;;;;;;;;;;;;;5054802;28;19908;-51
2022/06/03 15:15:32;;;;;;;;;;;;;;;;;;5065146;28;19962;-50
2022/06/03 15:17:58;;;;;;;;;;;;;;;;;;5065277;28;19948;-51
2022/06/03 15:20:24;;;;;;;;;;;;;;;;;;5071103;28;19916;-49
2022/06/03 15:22:52;;;;;;;;;;;;;;;;;;5065005;28;20593;-49
2022/06/03 15:25:18;;;;;;;;;;;;;;;;;;5081389;28;19955;-51
2022/06/03 15:27:44;;;;;;;;;;;;;;;;;;5066477;28;20422;-48
2022/06/03 15:30:10;;;;;;;;;;;;;;;;;;5067669;28;19920;-50
2022/06/03 15:32:36;;;;;;;;;;;;;;;;;;5066045;28;19921;-51
2022/06/03 15:35:03;;;;;;;;;;;;;;;;;;5076230;28;20433;-51
2022/06/03 15:37:28;;;;;;;;;;;;;;;;;;5079265;28;19974;-50
2022/06/03 15:39:54;;;;;;;;;;;;;;;;;;5064406;28;19921;-51
2022/06/03 15:42:20;;;;;;;;;;;;;;;;;;5064212;28;19904;-49
2022/06/03 15:44:46;;;;;;;;;;;;;;;;;;5064134;28;19912;-49
2022/06/03 15:47:12;;;;;;;;;;;;;;;;;;5068483;28;20007;-51
2022/06/03 15:49:38;;;;;;;;;;;;;;;;;;5074078;28;20443;-48
2022/06/03 15:52:04;;;;;;;;;;;;;;;;;;5080875;28;19916;-49
2022/06/03 15:54:30;;;;;;;;;;;;;;;;;;5069245;28;19961;-51
2022/06/03 15:56:57;;;;;;;;;;;;;;;;;;5068090;28;20062;-51
2022/06/03 15:59:24;;;;;;;;;;;;;;;;;;5077771;28;19920;-52
2022/06/03 16:01:50;;;;;;;;;;;;;;;;;;5081338;28;20421;-50
2022/06/03 16:04:16;;;;;;;;;;;;;;;;;;5057609;28;19912;-51
2022/06/03 16:06:42;;;;;;;;;;;;;;;;;;5069956;28;19912;-49
2022/06/03 16:09:08;;;;;;;;;;;;;;;;;;5069356;28;19909;-49
2022/06/03 16:11:35;;;;;;;;;;;;;;;;;;5067051;28;19958;-52
2022/06/03 16:14:00;;;;;;;;;;;;;;;;;;5064394;28;20094;-51
2022/06/03 16:16:26;;;;;;;;;;;;;;;;;;5065103;28;19995;-51
2022/06/03 16:18:52;;;;;;;;;;;;;;;;;;5077642;28;19915;-51
2022/06/03 16:21:18;;;;;;;;;;;;;;;;;;5085865;28;19922;-51
2022/06/03 16:23:44;;;;;;;;;;;;;;;;;;5061617;28;21372;-52
2022/06/03 16:26:10;;;;;;;;;;;;;;;;;;5081584;28;19962;-53
2022/06/03 16:28:37;;;;;;;;;;;;;;;;;;5063928;28;19921;-52
2022/06/03 16:31:03;;;;;;;;;;;;;;;;;;5063272;28;19912;-52
2022/06/03 16:33:29;;;;;;;;;;;;;;;;;;5070262;28;19908;-51
2022/06/03 16:35:55;;;;;;;;;;;;;;;;;;5069615;28;19938;-52
2022/06/03 16:38:21;;;;;;;;;;;;;;;;;;5086007;28;19961;-51
2022/06/03 16:40:47;;;;;;;;;;;;;;;;;;5068520;28;19930;-51
2022/06/03 16:43:14;;;;;;;;;;;;;;;;;;5086397;28;19912;-49
2022/06/03 16:48:25;;;;;;;;;;;;;;;;;;5063866;28;20382;-52
2022/06/03 16:50:51;;;;;;;;;;;;;;;;;;5072432;28;19998;-52
2022/06/03 16:53:17;;;;;;;;;;;;;;;;;;5067207;28;19908;-50
2022/06/03 16:55:45;;;;;;;;;;;;;;;;;;5074405;28;20310;-49
2022/06/03 16:58:13;;;;;;;;;;;;;;;;;;5054615;28;19914;-52
2022/06/03 17:00:39;;;;;;;;;;;;;;;;;;5076785;28;19991;-51
2022/06/03 17:03:07;;;;;;;;;;;;;;;;;;5072860;28;21251;-51
2022/06/03 17:05:33;;;;;;;;;;;;;;;;;;5081449;28;19980;-48
2022/06/03 17:08:00;;;;;;;;;;;;;;;;;;5076070;28;20375;-49
2022/06/03 17:10:26;;;;;;;;;;;;;;;;;;5062613;28;20443;-52